sensor_id;sensor_type;location;lat;lon;timestamp;P1;durP1;ratioP1;P2;durP2;ratioP2
30185;SDS011;31152;49.190;8.122;2023-02-28T00:01:29;5.38;;;2.47;;
30185;SDS011;31152;49.190;8.122;2023-02-28T00:03:57;6.07;;;2.05;;
30185;SDS011;31152;49.190;8.122;2023-02-28T00:06:26;3.92;;;1.98;;
30185;SDS011;31152;49.190;8.122;2023-02-28T00:08:52;5.53;;;2.15;;
30185;SDS011;31152;49.190;8.122;2023-02-28T00:11:19;2.95;;;2.03;;
30185;SDS011;31152;49.190;8.122;2023-02-28T00:13:46;3.90;;;1.92;;
30185;SDS011;31152;49.190;8.122;2023-02-28T00:16:15;4.50;;;2.15;;
30185;SDS011;31152;49.190;8.122;2023-02-28T00:18:44;4.22;;;2.10;;
30185;SDS011;31152;49.190;8.122;2023-02-28T00:21:11;4.18;;;1.60;;
30185;SDS011;31152;49.190;8.122;2023-02-28T00:23:37;4.20;;;1.90;;
30185;SDS011;31152;49.190;8.122;2023-02-28T00:26:09;4.43;;;1.90;;
30185;SDS011;31152;49.190;8.122;2023-02-28T00:28:36;4.95;;;2.33;;
30185;SDS011;31152;49.190;8.122;2023-02-28T00:31:05;4.45;;;1.50;;
30185;SDS011;31152;49.190;8.122;2023-02-28T00:33:32;5.03;;;1.92;;
30185;SDS011;31152;49.190;8.122;2023-02-28T00:36:03;4.72;;;1.80;;
30185;SDS011;31152;49.190;8.122;2023-02-28T00:38:36;2.40;;;1.42;;
30185;SDS011;31152;49.190;8.122;2023-02-28T00:41:04;2.88;;;1.50;;
30185;SDS011;31152;49.190;8.122;2023-02-28T00:43:35;3.42;;;1.77;;
30185;SDS011;31152;49.190;8.122;2023-02-28T00:46:03;4.85;;;1.73;;
30185;SDS011;31152;49.190;8.122;2023-02-28T00:48:31;3.45;;;1.83;;
30185;SDS011;31152;49.190;8.122;2023-02-28T00:50:58;4.13;;;1.48;;
30185;SDS011;31152;49.190;8.122;2023-02-28T00:53:25;4.63;;;1.75;;
30185;SDS011;31152;49.190;8.122;2023-02-28T00:55:52;3.03;;;1.60;;
30185;SDS011;31152;49.190;8.122;2023-02-28T00:58:21;3.35;;;1.38;;
30185;SDS011;31152;49.190;8.122;2023-02-28T01:00:48;3.65;;;1.45;;
30185;SDS011;31152;49.190;8.122;2023-02-28T01:03:18;4.28;;;1.73;;
30185;SDS011;31152;49.190;8.122;2023-02-28T01:05:48;4.30;;;1.73;;
30185;SDS011;31152;49.190;8.122;2023-02-28T01:08:15;3.97;;;1.50;;
30185;SDS011;31152;49.190;8.122;2023-02-28T01:10:42;3.60;;;1.75;;
30185;SDS011;31152;49.190;8.122;2023-02-28T01:13:08;3.33;;;1.70;;
30185;SDS011;31152;49.190;8.122;2023-02-28T01:15:36;2.83;;;1.40;;
30185;SDS011;31152;49.190;8.122;2023-02-28T01:18:04;5.60;;;1.80;;
30185;SDS011;31152;49.190;8.122;2023-02-28T01:20:33;6.22;;;1.50;;
30185;SDS011;31152;49.190;8.122;2023-02-28T01:23:03;3.45;;;1.60;;
30185;SDS011;31152;49.190;8.122;2023-02-28T01:25:29;4.13;;;1.70;;
30185;SDS011;31152;49.190;8.122;2023-02-28T01:28:02;3.53;;;1.70;;
30185;SDS011;31152;49.190;8.122;2023-02-28T01:30:30;4.43;;;1.88;;
30185;SDS011;31152;49.190;8.122;2023-02-28T01:32:59;5.45;;;1.77;;
30185;SDS011;31152;49.190;8.122;2023-02-28T01:35:26;5.75;;;1.98;;
30185;SDS011;31152;49.190;8.122;2023-02-28T01:37:52;11.70;;;1.88;;
30185;SDS011;31152;49.190;8.122;2023-02-28T01:40:19;4.43;;;1.65;;
30185;SDS011;31152;49.190;8.122;2023-02-28T01:42:46;3.00;;;1.48;;
30185;SDS011;31152;49.190;8.122;2023-02-28T01:48:00;4.57;;;1.73;;
30185;SDS011;31152;49.190;8.122;2023-02-28T01:50:32;7.30;;;2.40;;
30185;SDS011;31152;49.190;8.122;2023-02-28T01:53:04;3.38;;;1.75;;
30185;SDS011;31152;49.190;8.122;2023-02-28T01:55:34;6.05;;;1.80;;
30185;SDS011;31152;49.190;8.122;2023-02-28T01:58:04;4.63;;;1.70;;
30185;SDS011;31152;49.190;8.122;2023-02-28T02:00:32;4.95;;;2.10;;
30185;SDS011;31152;49.190;8.122;2023-02-28T02:03:01;5.85;;;2.22;;
30185;SDS011;31152;49.190;8.122;2023-02-28T02:05:33;4.07;;;1.80;;
30185;SDS011;31152;49.190;8.122;2023-02-28T02:08:03;7.05;;;2.20;;
30185;SDS011;31152;49.190;8.122;2023-02-28T02:10:35;4.35;;;2.08;;
30185;SDS011;31152;49.190;8.122;2023-02-28T02:21:31;6.07;;;1.90;;
30185;SDS011;31152;49.190;8.122;2023-02-28T02:26:52;5.13;;;2.08;;
30185;SDS011;31152;49.190;8.122;2023-02-28T02:34:52;7.75;;;2.22;;
30185;SDS011;31152;49.190;8.122;2023-02-28T02:37:34;4.35;;;1.98;;
30185;SDS011;31152;49.190;8.122;2023-02-28T02:40:19;6.43;;;2.63;;
30185;SDS011;31152;49.190;8.122;2023-02-28T02:45:49;5.38;;;2.55;;
30185;SDS011;31152;49.190;8.122;2023-02-28T02:48:24;5.40;;;2.72;;
30185;SDS011;31152;49.190;8.122;2023-02-28T02:50:57;6.90;;;2.35;;
30185;SDS011;31152;49.190;8.122;2023-02-28T02:53:35;7.18;;;2.42;;
30185;SDS011;31152;49.190;8.122;2023-02-28T02:56:17;4.55;;;2.58;;
30185;SDS011;31152;49.190;8.122;2023-02-28T02:58:49;6.82;;;2.65;;
30185;SDS011;31152;49.190;8.122;2023-02-28T03:01:20;4.07;;;2.50;;
30185;SDS011;31152;49.190;8.122;2023-02-28T03:03:55;4.60;;;2.30;;
30185;SDS011;31152;49.190;8.122;2023-02-28T03:06:24;6.25;;;2.67;;
30185;SDS011;31152;49.190;8.122;2023-02-28T03:08:52;8.32;;;2.83;;
30185;SDS011;31152;49.190;8.122;2023-02-28T03:11:21;8.43;;;3.25;;
30185;SDS011;31152;49.190;8.122;2023-02-28T03:14:37;4.75;;;2.72;;
30185;SDS011;31152;49.190;8.122;2023-02-28T03:16:53;4.55;;;2.47;;
30185;SDS011;31152;49.190;8.122;2023-02-28T03:22:38;5.28;;;2.55;;
30185;SDS011;31152;49.190;8.122;2023-02-28T03:28:25;5.03;;;2.60;;
30185;SDS011;31152;49.190;8.122;2023-02-28T03:36:44;7.05;;;2.85;;
30185;SDS011;31152;49.190;8.122;2023-02-28T03:39:22;4.50;;;2.70;;
30185;SDS011;31152;49.190;8.122;2023-02-28T03:41:58;5.25;;;2.88;;
30185;SDS011;31152;49.190;8.122;2023-02-28T03:44:32;10.13;;;3.50;;
30185;SDS011;31152;49.190;8.122;2023-02-28T03:47:17;7.68;;;3.30;;
30185;SDS011;31152;49.190;8.122;2023-02-28T03:52:52;6.88;;;3.15;;
30185;SDS011;31152;49.190;8.122;2023-02-28T03:55:49;7.78;;;3.17;;
30185;SDS011;31152;49.190;8.122;2023-02-28T04:01:12;6.18;;;3.13;;
30185;SDS011;31152;49.190;8.122;2023-02-28T04:03:46;6.88;;;3.08;;
30185;SDS011;31152;49.190;8.122;2023-02-28T04:06:14;5.10;;;2.85;;
30185;SDS011;31152;49.190;8.122;2023-02-28T04:08:44;7.20;;;3.17;;
30185;SDS011;31152;49.190;8.122;2023-02-28T04:13:56;6.22;;;3.13;;
30185;SDS011;31152;49.190;8.122;2023-02-28T04:16:22;6.93;;;3.30;;
30185;SDS011;31152;49.190;8.122;2023-02-28T04:19:00;5.43;;;3.30;;
30185;SDS011;31152;49.190;8.122;2023-02-28T04:21:32;9.52;;;3.33;;
30185;SDS011;31152;49.190;8.122;2023-02-28T04:24:00;5.20;;;3.28;;
30185;SDS011;31152;49.190;8.122;2023-02-28T04:26:31;7.97;;;3.35;;
30185;SDS011;31152;49.190;8.122;2023-02-28T04:28:59;5.90;;;3.42;;
30185;SDS011;31152;49.190;8.122;2023-02-28T04:31:29;8.57;;;3.63;;
30185;SDS011;31152;49.190;8.122;2023-02-28T04:33:56;9.02;;;3.20;;
30185;SDS011;31152;49.190;8.122;2023-02-28T04:36:26;8.23;;;3.50;;
30185;SDS011;31152;49.190;8.122;2023-02-28T04:38:55;6.80;;;3.30;;
30185;SDS011;31152;49.190;8.122;2023-02-28T04:41:22;10.65;;;3.60;;
30185;SDS011;31152;49.190;8.122;2023-02-28T04:43:56;6.13;;;3.30;;
30185;SDS011;31152;49.190;8.122;2023-02-28T04:46:23;7.97;;;3.75;;
30185;SDS011;31152;49.190;8.122;2023-02-28T04:48:50;7.00;;;3.45;;
30185;SDS011;31152;49.190;8.122;2023-02-28T04:51:18;6.22;;;3.60;;
30185;SDS011;31152;49.190;8.122;2023-02-28T04:53:46;6.10;;;3.33;;
30185;SDS011;31152;49.190;8.122;2023-02-28T04:56:13;6.07;;;3.28;;
30185;SDS011;31152;49.190;8.122;2023-02-28T04:58:42;7.60;;;3.40;;
30185;SDS011;31152;49.190;8.122;2023-02-28T05:04:13;8.70;;;3.67;;
30185;SDS011;31152;49.190;8.122;2023-02-28T05:06:41;8.60;;;3.63;;
30185;SDS011;31152;49.190;8.122;2023-02-28T05:09:07;6.45;;;3.40;;
30185;SDS011;31152;49.190;8.122;2023-02-28T05:11:34;5.82;;;3.55;;
30185;SDS011;31152;49.190;8.122;2023-02-28T05:14:06;7.07;;;3.58;;
30185;SDS011;31152;49.190;8.122;2023-02-28T05:16:36;9.02;;;3.38;;
30185;SDS011;31152;49.190;8.122;2023-02-28T05:19:03;7.90;;;3.15;;
30185;SDS011;31152;49.190;8.122;2023-02-28T05:21:40;6.60;;;3.33;;
30185;SDS011;31152;49.190;8.122;2023-02-28T05:24:15;7.15;;;3.15;;
30185;SDS011;31152;49.190;8.122;2023-02-28T05:26:51;4.38;;;2.97;;
30185;SDS011;31152;49.190;8.122;2023-02-28T05:29:19;6.15;;;3.40;;
30185;SDS011;31152;49.190;8.122;2023-02-28T05:31:49;7.10;;;3.92;;
30185;SDS011;31152;49.190;8.122;2023-02-28T05:34:16;10.45;;;3.83;;
30185;SDS011;31152;49.190;8.122;2023-02-28T05:36:43;6.32;;;3.05;;
30185;SDS011;31152;49.190;8.122;2023-02-28T05:39:12;8.02;;;3.08;;
30185;SDS011;31152;49.190;8.122;2023-02-28T05:41:42;9.30;;;4.18;;
30185;SDS011;31152;49.190;8.122;2023-02-28T05:44:09;6.63;;;3.45;;
30185;SDS011;31152;49.190;8.122;2023-02-28T05:46:37;9.00;;;3.63;;
30185;SDS011;31152;49.190;8.122;2023-02-28T05:49:06;6.60;;;3.92;;
30185;SDS011;31152;49.190;8.122;2023-02-28T05:51:35;8.20;;;3.20;;
30185;SDS011;31152;49.190;8.122;2023-02-28T05:54:06;7.38;;;3.28;;
30185;SDS011;31152;49.190;8.122;2023-02-28T05:56:37;6.85;;;3.60;;
30185;SDS011;31152;49.190;8.122;2023-02-28T05:59:06;6.80;;;3.15;;
30185;SDS011;31152;49.190;8.122;2023-02-28T06:01:34;7.35;;;3.40;;
30185;SDS011;31152;49.190;8.122;2023-02-28T06:04:01;7.68;;;3.55;;
30185;SDS011;31152;49.190;8.122;2023-02-28T06:06:30;8.07;;;3.35;;
30185;SDS011;31152;49.190;8.122;2023-02-28T06:08:57;6.25;;;3.40;;
30185;SDS011;31152;49.190;8.122;2023-02-28T06:11:24;8.00;;;3.88;;
30185;SDS011;31152;49.190;8.122;2023-02-28T06:13:55;6.97;;;4.28;;
30185;SDS011;31152;49.190;8.122;2023-02-28T06:16:23;6.72;;;3.55;;
30185;SDS011;31152;49.190;8.122;2023-02-28T06:18:50;11.13;;;3.80;;
30185;SDS011;31152;49.190;8.122;2023-02-28T06:21:18;7.45;;;3.92;;
30185;SDS011;31152;49.190;8.122;2023-02-28T06:23:47;7.30;;;3.50;;
30185;SDS011;31152;49.190;8.122;2023-02-28T06:26:16;10.27;;;4.20;;
30185;SDS011;31152;49.190;8.122;2023-02-28T06:28:46;7.57;;;4.00;;
30185;SDS011;31152;49.190;8.122;2023-02-28T06:31:16;9.02;;;3.80;;
30185;SDS011;31152;49.190;8.122;2023-02-28T06:33:44;10.88;;;3.92;;
30185;SDS011;31152;49.190;8.122;2023-02-28T06:36:12;8.48;;;4.00;;
30185;SDS011;31152;49.190;8.122;2023-02-28T06:38:42;11.43;;;4.63;;
30185;SDS011;31152;49.190;8.122;2023-02-28T06:41:12;8.23;;;3.90;;
30185;SDS011;31152;49.190;8.122;2023-02-28T06:43:39;9.95;;;4.10;;
30185;SDS011;31152;49.190;8.122;2023-02-28T06:46:11;6.65;;;3.75;;
30185;SDS011;31152;49.190;8.122;2023-02-28T06:48:40;10.00;;;3.40;;
30185;SDS011;31152;49.190;8.122;2023-02-28T06:51:11;6.47;;;3.72;;
30185;SDS011;31152;49.190;8.122;2023-02-28T06:53:42;9.75;;;4.03;;
30185;SDS011;31152;49.190;8.122;2023-02-28T06:56:10;6.60;;;4.03;;
30185;SDS011;31152;49.190;8.122;2023-02-28T06:58:38;7.93;;;3.63;;
30185;SDS011;31152;49.190;8.122;2023-02-28T07:01:06;6.57;;;3.67;;
30185;SDS011;31152;49.190;8.122;2023-02-28T07:03:36;7.35;;;3.60;;
30185;SDS011;31152;49.190;8.122;2023-02-28T07:06:06;8.73;;;4.40;;
30185;SDS011;31152;49.190;8.122;2023-02-28T07:08:35;11.40;;;4.28;;
30185;SDS011;31152;49.190;8.122;2023-02-28T07:11:02;11.05;;;3.85;;
30185;SDS011;31152;49.190;8.122;2023-02-28T07:13:33;9.98;;;3.63;;
30185;SDS011;31152;49.190;8.122;2023-02-28T07:16:00;7.35;;;3.80;;
30185;SDS011;31152;49.190;8.122;2023-02-28T07:18:29;7.43;;;3.95;;
30185;SDS011;31152;49.190;8.122;2023-02-28T07:20:56;10.30;;;4.70;;
30185;SDS011;31152;49.190;8.122;2023-02-28T07:23:23;9.68;;;4.55;;
30185;SDS011;31152;49.190;8.122;2023-02-28T07:25:52;10.07;;;4.70;;
30185;SDS011;31152;49.190;8.122;2023-02-28T07:28:19;8.40;;;4.18;;
30185;SDS011;31152;49.190;8.122;2023-02-28T07:30:48;7.25;;;3.90;;
30185;SDS011;31152;49.190;8.122;2023-02-28T07:33:15;10.38;;;4.55;;
30185;SDS011;31152;49.190;8.122;2023-02-28T07:35:42;6.70;;;3.88;;
30185;SDS011;31152;49.190;8.122;2023-02-28T07:38:09;11.15;;;4.60;;
30185;SDS011;31152;49.190;8.122;2023-02-28T07:40:36;6.35;;;3.75;;
30185;SDS011;31152;49.190;8.122;2023-02-28T07:43:03;7.85;;;3.83;;
30185;SDS011;31152;49.190;8.122;2023-02-28T07:45:30;7.25;;;3.70;;
30185;SDS011;31152;49.190;8.122;2023-02-28T07:48:00;6.70;;;3.83;;
30185;SDS011;31152;49.190;8.122;2023-02-28T07:50:28;6.93;;;3.88;;
30185;SDS011;31152;49.190;8.122;2023-02-28T07:52:58;7.32;;;4.18;;
30185;SDS011;31152;49.190;8.122;2023-02-28T07:55:27;13.27;;;4.40;;
30185;SDS011;31152;49.190;8.122;2023-02-28T07:57:54;8.85;;;3.97;;
30185;SDS011;31152;49.190;8.122;2023-02-28T08:00:24;7.45;;;4.13;;
30185;SDS011;31152;49.190;8.122;2023-02-28T08:02:51;9.55;;;3.90;;
30185;SDS011;31152;49.190;8.122;2023-02-28T08:05:20;8.32;;;4.28;;
30185;SDS011;31152;49.190;8.122;2023-02-28T08:07:48;7.78;;;4.20;;
30185;SDS011;31152;49.190;8.122;2023-02-28T08:10:15;10.15;;;4.80;;
30185;SDS011;31152;49.190;8.122;2023-02-28T08:12:42;7.90;;;3.90;;
30185;SDS011;31152;49.190;8.122;2023-02-28T08:15:09;7.75;;;4.13;;
30185;SDS011;31152;49.190;8.122;2023-02-28T08:17:36;11.38;;;4.50;;
30185;SDS011;31152;49.190;8.122;2023-02-28T08:20:05;9.60;;;4.40;;
30185;SDS011;31152;49.190;8.122;2023-02-28T08:22:33;12.23;;;4.45;;
30185;SDS011;31152;49.190;8.122;2023-02-28T08:25:00;8.60;;;4.18;;
30185;SDS011;31152;49.190;8.122;2023-02-28T08:27:26;11.48;;;4.68;;
30185;SDS011;31152;49.190;8.122;2023-02-28T08:29:53;10.52;;;4.28;;
30185;SDS011;31152;49.190;8.122;2023-02-28T08:32:20;13.10;;;4.65;;
30185;SDS011;31152;49.190;8.122;2023-02-28T08:34:55;10.02;;;4.50;;
30185;SDS011;31152;49.190;8.122;2023-02-28T08:37:22;11.43;;;4.82;;
30185;SDS011;31152;49.190;8.122;2023-02-28T08:39:51;10.55;;;4.40;;
30185;SDS011;31152;49.190;8.122;2023-02-28T08:42:22;10.10;;;4.65;;
30185;SDS011;31152;49.190;8.122;2023-02-28T08:44:49;9.50;;;4.43;;
30185;SDS011;31152;49.190;8.122;2023-02-28T08:47:18;14.32;;;5.00;;
30185;SDS011;31152;49.190;8.122;2023-02-28T08:49:45;13.57;;;5.13;;
30185;SDS011;31152;49.190;8.122;2023-02-28T08:52:12;13.27;;;7.28;;
30185;SDS011;31152;49.190;8.122;2023-02-28T08:54:39;10.60;;;5.45;;
30185;SDS011;31152;49.190;8.122;2023-02-28T08:57:05;10.63;;;5.47;;
30185;SDS011;31152;49.190;8.122;2023-02-28T08:59:32;10.70;;;5.45;;
30185;SDS011;31152;49.190;8.122;2023-02-28T09:01:59;11.55;;;4.95;;
30185;SDS011;31152;49.190;8.122;2023-02-28T09:04:26;10.85;;;5.10;;
30185;SDS011;31152;49.190;8.122;2023-02-28T09:06:57;16.58;;;7.97;;
30185;SDS011;31152;49.190;8.122;2023-02-28T09:09:24;21.77;;;6.60;;
30185;SDS011;31152;49.190;8.122;2023-02-28T09:11:50;9.85;;;5.57;;
30185;SDS011;31152;49.190;8.122;2023-02-28T09:14:17;14.30;;;6.60;;
30185;SDS011;31152;49.190;8.122;2023-02-28T09:16:44;13.43;;;5.78;;
30185;SDS011;31152;49.190;8.122;2023-02-28T09:19:11;15.63;;;4.90;;
30185;SDS011;31152;49.190;8.122;2023-02-28T09:21:39;9.25;;;4.72;;
30185;SDS011;31152;49.190;8.122;2023-02-28T09:24:06;18.83;;;7.40;;
30185;SDS011;31152;49.190;8.122;2023-02-28T09:26:33;14.20;;;5.65;;
30185;SDS011;31152;49.190;8.122;2023-02-28T09:29:12;14.73;;;4.65;;
30185;SDS011;31152;49.190;8.122;2023-02-28T09:31:42;11.77;;;5.40;;
30185;SDS011;31152;49.190;8.122;2023-02-28T09:34:09;9.68;;;5.57;;
30185;SDS011;31152;49.190;8.122;2023-02-28T09:36:36;13.50;;;6.32;;
30185;SDS011;31152;49.190;8.122;2023-02-28T09:39:11;15.55;;;6.43;;
30185;SDS011;31152;49.190;8.122;2023-02-28T09:41:40;20.52;;;5.75;;
30185;SDS011;31152;49.190;8.122;2023-02-28T09:44:24;20.27;;;6.28;;
30185;SDS011;31152;49.190;8.122;2023-02-28T09:49:37;12.95;;;6.15;;
30185;SDS011;31152;49.190;8.122;2023-02-28T09:52:19;13.30;;;5.95;;
30185;SDS011;31152;49.190;8.122;2023-02-28T09:54:50;16.95;;;6.03;;
30185;SDS011;31152;49.190;8.122;2023-02-28T09:57:32;10.85;;;5.43;;
30185;SDS011;31152;49.190;8.122;2023-02-28T10:00:17;15.23;;;6.25;;
30185;SDS011;31152;49.190;8.122;2023-02-28T10:02:56;10.00;;;5.32;;
30185;SDS011;31152;49.190;8.122;2023-02-28T10:05:50;10.52;;;5.50;;
30185;SDS011;31152;49.190;8.122;2023-02-28T10:08:25;13.63;;;5.35;;
30185;SDS011;31152;49.190;8.122;2023-02-28T10:11:07;8.65;;;5.43;;
30185;SDS011;31152;49.190;8.122;2023-02-28T10:16:33;9.95;;;6.05;;
30185;SDS011;31152;49.190;8.122;2023-02-28T10:19:28;11.65;;;5.28;;
30185;SDS011;31152;49.190;8.122;2023-02-28T10:22:08;10.20;;;5.85;;
30185;SDS011;31152;49.190;8.122;2023-02-28T10:24:44;9.43;;;5.53;;
30185;SDS011;31152;49.190;8.122;2023-02-28T10:27:22;9.32;;;6.03;;
30185;SDS011;31152;49.190;8.122;2023-02-28T10:29:58;7.90;;;5.22;;
30185;SDS011;31152;49.190;8.122;2023-02-28T10:32:27;11.35;;;6.07;;
30185;SDS011;31152;49.190;8.122;2023-02-28T10:35:15;10.85;;;5.97;;
30185;SDS011;31152;49.190;8.122;2023-02-28T10:37:45;14.70;;;5.80;;
30185;SDS011;31152;49.190;8.122;2023-02-28T10:40:26;9.90;;;5.35;;
30185;SDS011;31152;49.190;8.122;2023-02-28T10:45:32;9.23;;;5.45;;
30185;SDS011;31152;49.190;8.122;2023-02-28T10:48:05;8.05;;;5.40;;
30185;SDS011;31152;49.190;8.122;2023-02-28T10:55:56;11.20;;;5.20;;
30185;SDS011;31152;49.190;8.122;2023-02-28T10:58:44;9.15;;;5.53;;
30185;SDS011;31152;49.190;8.122;2023-02-28T11:04:01;10.82;;;5.57;;
30185;SDS011;31152;49.190;8.122;2023-02-28T11:06:31;9.25;;;5.35;;
30185;SDS011;31152;49.190;8.122;2023-02-28T11:11:30;9.57;;;5.30;;
30185;SDS011;31152;49.190;8.122;2023-02-28T11:14:14;10.18;;;5.70;;
30185;SDS011;31152;49.190;8.122;2023-02-28T11:17:14;11.13;;;6.60;;
30185;SDS011;31152;49.190;8.122;2023-02-28T11:19:55;8.98;;;5.95;;
30185;SDS011;31152;49.190;8.122;2023-02-28T11:22:30;8.70;;;6.03;;
30185;SDS011;31152;49.190;8.122;2023-02-28T11:25:03;10.23;;;6.05;;
30185;SDS011;31152;49.190;8.122;2023-02-28T11:27:51;10.88;;;6.10;;
30185;SDS011;31152;49.190;8.122;2023-02-28T11:30:24;10.38;;;5.40;;
30185;SDS011;31152;49.190;8.122;2023-02-28T11:33:00;9.90;;;5.80;;
30185;SDS011;31152;49.190;8.122;2023-02-28T11:35:46;9.10;;;6.25;;
30185;SDS011;31152;49.190;8.122;2023-02-28T11:38:16;10.38;;;5.97;;
30185;SDS011;31152;49.190;8.122;2023-02-28T11:48:41;17.15;;;6.55;;
30185;SDS011;31152;49.190;8.122;2023-02-28T11:51:42;10.43;;;5.95;;
30185;SDS011;31152;49.190;8.122;2023-02-28T11:57:06;11.05;;;6.35;;
30185;SDS011;31152;49.190;8.122;2023-02-28T11:59:42;10.50;;;6.45;;
30185;SDS011;31152;49.190;8.122;2023-02-28T12:13:04;14.32;;;7.15;;
30185;SDS011;31152;49.190;8.122;2023-02-28T12:15:56;10.68;;;6.25;;
30185;SDS011;31152;49.190;8.122;2023-02-28T12:18:53;12.02;;;5.78;;
30185;SDS011;31152;49.190;8.122;2023-02-28T12:27:09;18.90;;;5.75;;
30185;SDS011;31152;49.190;8.122;2023-02-28T12:30:03;9.27;;;6.25;;
30185;SDS011;31152;49.190;8.122;2023-02-28T12:33:02;9.93;;;6.15;;
30185;SDS011;31152;49.190;8.122;2023-02-28T12:41:01;7.47;;;5.95;;
30185;SDS011;31152;49.190;8.122;2023-02-28T12:43:36;11.00;;;6.20;;
30185;SDS011;31152;49.190;8.122;2023-02-28T12:46:14;21.83;;;6.43;;
30185;SDS011;31152;49.190;8.122;2023-02-28T12:48:52;8.95;;;6.28;;
30185;SDS011;31152;49.190;8.122;2023-02-28T12:51:23;9.60;;;6.18;;
30185;SDS011;31152;49.190;8.122;2023-02-28T12:54:04;11.27;;;6.13;;
30185;SDS011;31152;49.190;8.122;2023-02-28T12:59:43;10.95;;;6.32;;
30185;SDS011;31152;49.190;8.122;2023-02-28T13:14:24;10.20;;;6.13;;
30185;SDS011;31152;49.190;8.122;2023-02-28T13:16:59;8.05;;;5.90;;
30185;SDS011;31152;49.190;8.122;2023-02-28T13:27:52;14.82;;;6.68;;
30185;SDS011;31152;49.190;8.122;2023-02-28T13:33:23;9.48;;;6.07;;
30185;SDS011;31152;49.190;8.122;2023-02-28T13:38:36;11.03;;;6.47;;
30185;SDS011;31152;49.190;8.122;2023-02-28T14:11:44;8.45;;;6.97;;
30185;SDS011;31152;49.190;8.122;2023-02-28T14:17:07;8.38;;;6.60;;
30185;SDS011;31152;49.190;8.122;2023-02-28T14:19:41;9.32;;;6.57;;
30185;SDS011;31152;49.190;8.122;2023-02-28T14:30:56;8.57;;;6.93;;
30185;SDS011;31152;49.190;8.122;2023-02-28T14:36:32;12.95;;;6.80;;
30185;SDS011;31152;49.190;8.122;2023-02-28T14:41:58;7.00;;;6.25;;
30185;SDS011;31152;49.190;8.122;2023-02-28T14:44:30;9.05;;;7.00;;
30185;SDS011;31152;49.190;8.122;2023-02-28T14:47:01;12.90;;;7.32;;
30185;SDS011;31152;49.190;8.122;2023-02-28T14:49:34;19.90;;;7.25;;
30185;SDS011;31152;49.190;8.122;2023-02-28T14:54:36;12.60;;;6.85;;
30185;SDS011;31152;49.190;8.122;2023-02-28T14:57:04;10.07;;;6.53;;
30185;SDS011;31152;49.190;8.122;2023-02-28T14:59:33;10.18;;;6.75;;
30185;SDS011;31152;49.190;8.122;2023-02-28T15:04:51;8.75;;;6.03;;
30185;SDS011;31152;49.190;8.122;2023-02-28T15:07:20;12.68;;;7.05;;
30185;SDS011;31152;49.190;8.122;2023-02-28T15:12:45;7.38;;;5.88;;
30185;SDS011;31152;49.190;8.122;2023-02-28T15:15:20;11.95;;;6.90;;
30185;SDS011;31152;49.190;8.122;2023-02-28T15:18:01;9.27;;;6.50;;
30185;SDS011;31152;49.190;8.122;2023-02-28T15:20:32;14.48;;;6.75;;
30185;SDS011;31152;49.190;8.122;2023-02-28T15:22:59;9.35;;;6.70;;
30185;SDS011;31152;49.190;8.122;2023-02-28T15:25:27;12.30;;;6.90;;
30185;SDS011;31152;49.190;8.122;2023-02-28T15:27:56;11.65;;;6.25;;
30185;SDS011;31152;49.190;8.122;2023-02-28T15:30:27;13.18;;;6.78;;
30185;SDS011;31152;49.190;8.122;2023-02-28T15:33:30;12.25;;;7.57;;
30185;SDS011;31152;49.190;8.122;2023-02-28T15:35:51;14.68;;;6.82;;
30185;SDS011;31152;49.190;8.122;2023-02-28T15:38:29;14.65;;;6.53;;
30185;SDS011;31152;49.190;8.122;2023-02-28T15:41:01;11.27;;;6.70;;
30185;SDS011;31152;49.190;8.122;2023-02-28T15:43:35;13.98;;;7.25;;
30185;SDS011;31152;49.190;8.122;2023-02-28T15:46:14;13.93;;;7.10;;
30185;SDS011;31152;49.190;8.122;2023-02-28T15:48:54;10.90;;;7.18;;
30185;SDS011;31152;49.190;8.122;2023-02-28T15:51:29;11.23;;;7.35;;
30185;SDS011;31152;49.190;8.122;2023-02-28T15:54:01;18.20;;;7.10;;
30185;SDS011;31152;49.190;8.122;2023-02-28T15:56:36;13.27;;;7.32;;
30185;SDS011;31152;49.190;8.122;2023-02-28T15:59:12;9.00;;;6.57;;
30185;SDS011;31152;49.190;8.122;2023-02-28T16:01:43;13.80;;;7.38;;
30185;SDS011;31152;49.190;8.122;2023-02-28T16:04:14;14.35;;;7.00;;
30185;SDS011;31152;49.190;8.122;2023-02-28T16:06:43;11.73;;;6.72;;
30185;SDS011;31152;49.190;8.122;2023-02-28T16:09:17;9.98;;;6.55;;
30185;SDS011;31152;49.190;8.122;2023-02-28T16:11:45;10.93;;;6.80;;
30185;SDS011;31152;49.190;8.122;2023-02-28T16:14:21;15.95;;;6.97;;
30185;SDS011;31152;49.190;8.122;2023-02-28T16:16:55;8.95;;;6.50;;
30185;SDS011;31152;49.190;8.122;2023-02-28T16:19:31;9.10;;;6.53;;
30185;SDS011;31152;49.190;8.122;2023-02-28T16:21:59;11.32;;;6.95;;
30185;SDS011;31152;49.190;8.122;2023-02-28T16:24:27;12.57;;;7.18;;
30185;SDS011;31152;49.190;8.122;2023-02-28T16:26:54;10.73;;;7.65;;
30185;SDS011;31152;49.190;8.122;2023-02-28T16:29:32;9.07;;;6.93;;
30185;SDS011;31152;49.190;8.122;2023-02-28T16:32:04;10.40;;;7.05;;
30185;SDS011;31152;49.190;8.122;2023-02-28T16:34:36;12.55;;;7.28;;
30185;SDS011;31152;49.190;8.122;2023-02-28T16:37:04;14.93;;;7.13;;
30185;SDS011;31152;49.190;8.122;2023-02-28T16:39:37;15.75;;;7.57;;
30185;SDS011;31152;49.190;8.122;2023-02-28T16:42:03;11.85;;;6.80;;
30185;SDS011;31152;49.190;8.122;2023-02-28T16:44:31;13.82;;;7.55;;
30185;SDS011;31152;49.190;8.122;2023-02-28T16:47:03;10.02;;;7.25;;
30185;SDS011;31152;49.190;8.122;2023-02-28T16:49:30;12.57;;;7.90;;
30185;SDS011;31152;49.190;8.122;2023-02-28T16:51:57;14.55;;;7.97;;
30185;SDS011;31152;49.190;8.122;2023-02-28T16:54:26;14.45;;;7.90;;
30185;SDS011;31152;49.190;8.122;2023-02-28T16:56:55;11.95;;;8.10;;
30185;SDS011;31152;49.190;8.122;2023-02-28T16:59:22;9.98;;;6.75;;
30185;SDS011;31152;49.190;8.122;2023-02-28T17:01:51;17.73;;;7.75;;
30185;SDS011;31152;49.190;8.122;2023-02-28T17:04:24;11.35;;;7.55;;
30185;SDS011;31152;49.190;8.122;2023-02-28T17:06:54;14.88;;;8.55;;
30185;SDS011;31152;49.190;8.122;2023-02-28T17:09:22;14.02;;;7.90;;
30185;SDS011;31152;49.190;8.122;2023-02-28T17:12:06;14.27;;;7.82;;
30185;SDS011;31152;49.190;8.122;2023-02-28T17:14:34;14.98;;;8.13;;
30185;SDS011;31152;49.190;8.122;2023-02-28T17:17:01;13.30;;;7.95;;
30185;SDS011;31152;49.190;8.122;2023-02-28T17:19:28;13.77;;;8.25;;
30185;SDS011;31152;49.190;8.122;2023-02-28T17:21:54;14.48;;;8.32;;
30185;SDS011;31152;49.190;8.122;2023-02-28T17:24:24;17.15;;;7.95;;
30185;SDS011;31152;49.190;8.122;2023-02-28T17:26:59;13.15;;;7.43;;
30185;SDS011;31152;49.190;8.122;2023-02-28T17:29:26;14.93;;;7.50;;
30185;SDS011;31152;49.190;8.122;2023-02-28T17:31:52;14.10;;;7.50;;
30185;SDS011;31152;49.190;8.122;2023-02-28T17:34:20;14.25;;;7.13;;
30185;SDS011;31152;49.190;8.122;2023-02-28T17:36:48;13.02;;;7.68;;
30185;SDS011;31152;49.190;8.122;2023-02-28T17:39:17;12.88;;;7.35;;
30185;SDS011;31152;49.190;8.122;2023-02-28T17:41:53;13.65;;;7.55;;
30185;SDS011;31152;49.190;8.122;2023-02-28T17:44:21;12.27;;;7.43;;
30185;SDS011;31152;49.190;8.122;2023-02-28T17:46:50;14.63;;;7.75;;
30185;SDS011;31152;49.190;8.122;2023-02-28T17:49:20;16.65;;;7.95;;
30185;SDS011;31152;49.190;8.122;2023-02-28T17:51:51;14.45;;;7.57;;
30185;SDS011;31152;49.190;8.122;2023-02-28T17:54:18;16.67;;;8.60;;
30185;SDS011;31152;49.190;8.122;2023-02-28T17:56:46;17.20;;;8.65;;
30185;SDS011;31152;49.190;8.122;2023-02-28T17:59:12;19.77;;;8.30;;
30185;SDS011;31152;49.190;8.122;2023-02-28T18:01:42;15.98;;;8.45;;
30185;SDS011;31152;49.190;8.122;2023-02-28T18:04:11;17.73;;;7.68;;
30185;SDS011;31152;49.190;8.122;2023-02-28T18:06:39;19.35;;;8.13;;
30185;SDS011;31152;49.190;8.122;2023-02-28T18:09:17;18.27;;;8.85;;
30185;SDS011;31152;49.190;8.122;2023-02-28T18:11:49;18.58;;;8.88;;